createdAt,value
2023-02-05T00:04:10.198Z,20.05
2023-02-05T00:06:37.717Z,17.60
2023-02-05T00:09:05.774Z,18.23
2023-02-05T00:11:33.733Z,19.90
2023-02-05T00:14:01.259Z,17.88
2023-02-05T00:16:28.848Z,17.02
2023-02-05T00:18:57.437Z,19.50
2023-02-05T00:21:25.266Z,19.30
2023-02-05T00:23:53.932Z,19.52
2023-02-05T00:26:22.519Z,18.52
2023-02-05T00:28:50.315Z,18.42
2023-02-05T00:31:22.183Z,20.05
2023-02-05T00:33:50.777Z,19.33
2023-02-05T00:36:19.353Z,19.30
2023-02-05T00:38:47.277Z,20.92
2023-02-05T00:41:15.769Z,22.95
2023-02-05T00:43:44.035Z,24.70
2023-02-05T00:46:12.593Z,25.55
2023-02-05T00:48:40.556Z,26.30
2023-02-05T00:51:09.098Z,27.15
2023-02-05T00:53:36.713Z,27.52
2023-02-05T00:56:04.955Z,25.75
2023-02-05T00:58:32.857Z,27.50
2023-02-05T01:03:36.732Z,28.73
2023-02-05T01:06:05.047Z,31.20
2023-02-05T01:08:32.549Z,31.45
2023-02-05T01:11:00.617Z,32.35
2023-02-05T01:13:29.108Z,32.90
2023-02-05T01:15:56.879Z,33.58
2023-02-05T01:18:24.506Z,34.25
2023-02-05T01:20:52.249Z,35.50
2023-02-05T01:23:19.980Z,37.22
2023-02-05T01:25:47.583Z,36.60
2023-02-05T01:28:18.943Z,37.33
2023-02-05T01:30:50.680Z,39.03
2023-02-05T01:33:19.345Z,39.67
2023-02-05T01:35:48.202Z,39.38
2023-02-05T01:38:15.956Z,41.97
2023-02-05T01:40:44.795Z,40.95
2023-02-05T01:43:13.932Z,42.65
2023-02-05T01:45:52.109Z,37.60
2023-02-05T01:48:22.082Z,39.00
2023-02-05T01:50:51.976Z,37.65
2023-02-05T01:53:22.524Z,38.17
2023-02-05T01:58:22.884Z,36.67
2023-02-05T02:00:51.219Z,39.07
2023-02-05T02:03:18.922Z,39.33
2023-02-05T02:05:46.437Z,37.83
2023-02-05T02:08:17.939Z,37.92
2023-02-05T02:10:47.158Z,36.92
2023-02-05T02:13:15.240Z,37.80
2023-02-05T02:15:43.335Z,38.13
2023-02-05T02:18:28.704Z,37.53
2023-02-05T02:21:05.978Z,37.25
2023-02-05T02:23:48.660Z,34.97
2023-02-05T02:26:54.867Z,35.33
2023-02-05T02:29:36.626Z,35.50
2023-02-05T02:32:09.203Z,33.90
2023-02-05T02:34:42.740Z,34.90
2023-02-05T02:37:19.606Z,34.42
2023-02-05T02:39:55.242Z,34.85
2023-02-05T02:42:26.233Z,33.85
2023-02-05T02:44:57.663Z,34.63
2023-02-05T02:47:27.280Z,33.95
2023-02-05T02:52:24.757Z,32.75
2023-02-05T02:54:53.715Z,31.85
2023-02-05T02:57:24.145Z,31.27
2023-02-05T02:59:54.277Z,30.63
2023-02-05T03:02:22.451Z,31.95
2023-02-05T03:04:54.384Z,28.38
2023-02-05T03:07:25.966Z,29.55
2023-02-05T03:12:22.535Z,29.25
2023-02-05T03:14:50.451Z,27.90
2023-02-05T03:17:21.153Z,27.23
2023-02-05T03:19:54.215Z,27.98
2023-02-05T03:22:21.653Z,26.38
2023-02-05T03:24:51.096Z,26.45
2023-02-05T03:27:20.688Z,27.15
2023-02-05T03:29:51.045Z,26.88
2023-02-05T03:32:21.620Z,26.08
2023-02-05T03:35:02.315Z,24.88
2023-02-05T03:37:54.476Z,25.02
2023-02-05T03:40:34.826Z,24.50
2023-02-05T03:43:18.648Z,24.83
2023-02-05T03:45:50.318Z,25.02
2023-02-05T03:48:49.177Z,24.88
2023-02-05T03:51:23.055Z,24.90
2023-02-05T03:53:51.779Z,24.55
2023-02-05T03:56:28.470Z,23.10
2023-02-05T03:58:57.441Z,23.58
2023-02-05T04:01:27.097Z,23.35
2023-02-05T04:03:54.621Z,22.60
2023-02-05T04:06:22.349Z,24.67
2023-02-05T04:08:54.217Z,23.73
2023-02-05T04:11:25.768Z,24.42
2023-02-05T04:13:54.224Z,25.35
2023-02-05T04:16:21.990Z,23.85
2023-02-05T04:18:49.982Z,25.67
2023-02-05T04:21:19.219Z,24.95
2023-02-05T04:23:46.750Z,25.60
2023-02-05T04:26:15.528Z,26.10
2023-02-05T04:28:50.940Z,25.83
2023-02-05T04:31:20.193Z,26.98
2023-02-05T04:33:48.003Z,25.48
2023-02-05T04:36:17.901Z,26.13
2023-02-05T04:38:46.258Z,25.38
2023-02-05T04:41:15.091Z,25.02
2023-02-05T04:43:42.568Z,25.30
2023-02-05T04:46:10.942Z,25.33
2023-02-05T04:48:39.137Z,24.02
2023-02-05T04:51:11.004Z,23.30
2023-02-05T04:53:39.251Z,22.25
2023-02-05T04:56:12.035Z,24.05
2023-02-05T04:58:40.029Z,20.90
2023-02-05T05:01:12.717Z,20.83
2023-02-05T05:03:41.615Z,20.10
2023-02-05T05:06:09.344Z,18.35
2023-02-05T05:08:37.606Z,18.45
2023-02-05T05:11:12.875Z,18.25
2023-02-05T05:13:41.086Z,17.67
2023-02-05T05:16:09.112Z,18.58
2023-02-05T05:18:36.698Z,16.73
2023-02-05T05:21:05.339Z,16.98
2023-02-05T05:23:33.365Z,16.80
2023-02-05T05:26:00.778Z,15.15
2023-02-05T05:28:28.410Z,15.73
2023-02-05T05:30:59.998Z,14.93
2023-02-05T05:33:31.272Z,15.18
2023-02-05T05:35:59.585Z,14.75
2023-02-05T05:38:27.111Z,13.77
2023-02-05T05:41:14.441Z,14.60
2023-02-05T05:43:48.291Z,13.63
2023-02-05T05:46:23.043Z,13.60
2023-02-05T05:48:54.698Z,13.93
2023-02-05T05:51:22.795Z,13.90
2023-02-05T05:53:50.930Z,14.20
2023-02-05T05:56:18.690Z,14.02
2023-02-05T05:58:46.878Z,14.02
2023-02-05T06:01:15.905Z,14.25
2023-02-05T06:03:44.931Z,13.90
2023-02-05T06:06:13.765Z,14.20
2023-02-05T06:08:41.785Z,14.02
2023-02-05T06:11:12.866Z,14.48
2023-02-05T06:13:41.877Z,14.27
2023-02-05T06:16:09.487Z,15.63
2023-02-05T06:18:37.145Z,14.23
2023-02-05T06:21:06.004Z,14.40
2023-02-05T06:23:34.453Z,14.73
2023-02-05T06:26:01.999Z,14.00
2023-02-05T06:28:29.504Z,14.05
2023-02-05T06:30:57.296Z,13.43
2023-02-05T06:33:25.113Z,12.90
2023-02-05T06:35:52.754Z,12.15
2023-02-05T06:38:20.518Z,11.02
2023-02-05T06:40:48.775Z,8.55
2023-02-05T06:43:17.069Z,7.00
2023-02-05T06:45:45.377Z,4.28
2023-02-05T06:48:13.110Z,2.53
2023-02-05T06:50:41.493Z,1.80
2023-02-05T06:53:11.531Z,1.70
2023-02-05T06:55:39.722Z,2.28
2023-02-05T06:58:08.178Z,1.73
2023-02-05T07:00:36.759Z,1.83
2023-02-05T07:03:04.759Z,2.30
2023-02-05T07:05:34.131Z,1.52
2023-02-05T07:10:32.531Z,3.17
2023-02-05T07:13:05.566Z,1.55
2023-02-05T07:15:34.199Z,1.48
2023-02-05T07:18:02.176Z,1.27
2023-02-05T07:20:29.955Z,1.35
2023-02-05T07:22:58.635Z,1.40
2023-02-05T07:25:26.686Z,1.75
2023-02-05T07:27:58.230Z,1.20
2023-02-05T07:30:29.698Z,1.17
2023-02-05T07:32:57.637Z,1.73
2023-02-05T07:35:25.227Z,1.77
2023-02-05T07:37:52.898Z,1.42
2023-02-05T07:40:20.680Z,1.67
2023-02-05T07:42:48.575Z,1.42
2023-02-05T07:45:16.534Z,1.52
2023-02-05T07:47:51.087Z,1.63
2023-02-05T07:50:18.744Z,2.42
2023-02-05T07:52:46.329Z,1.55
2023-02-05T07:55:14.219Z,1.58
2023-02-05T07:57:41.802Z,2.03
2023-02-05T08:00:09.938Z,1.50
2023-02-05T08:02:41.276Z,1.63
2023-02-05T08:05:09.247Z,2.22
2023-02-05T08:07:37.783Z,1.80
2023-02-05T08:10:05.878Z,1.60
2023-02-05T08:12:33.434Z,1.88
2023-02-05T08:15:01.170Z,1.88
2023-02-05T08:17:28.835Z,2.40
2023-02-05T08:19:56.458Z,2.35
2023-02-05T08:22:24.269Z,3.10
2023-02-05T08:24:51.962Z,2.72
2023-02-05T08:27:19.645Z,2.58
2023-02-05T08:29:50.132Z,2.53
2023-02-05T08:32:17.772Z,2.45
2023-02-05T08:34:48.778Z,1.85
2023-02-05T08:37:16.762Z,1.73
2023-02-05T08:39:46.469Z,2.00
2023-02-05T08:42:15.245Z,2.42
2023-02-05T08:44:42.835Z,3.08
2023-02-05T08:47:17.406Z,3.13
2023-02-05T08:49:46.784Z,3.50
2023-02-05T08:52:15.301Z,2.75
2023-02-05T08:54:44.140Z,2.60
2023-02-05T08:57:16.779Z,2.58
2023-02-05T08:59:48.637Z,2.75
2023-02-05T09:02:16.857Z,2.60
2023-02-05T09:04:45.975Z,3.00
2023-02-05T09:07:17.106Z,3.97
2023-02-05T09:09:45.194Z,3.75
2023-02-05T09:12:14.209Z,2.90
2023-02-05T09:14:42.869Z,2.60
2023-02-05T09:17:15.726Z,2.88
2023-02-05T09:19:45.577Z,3.42
2023-02-05T09:22:14.464Z,3.92
2023-02-05T09:24:42.140Z,3.28
2023-02-05T09:27:09.875Z,2.47
2023-02-05T09:29:37.966Z,5.97
2023-02-05T09:34:35.837Z,4.03
2023-02-05T09:37:03.405Z,3.38
2023-02-05T09:42:22.325Z,4.45
2023-02-05T09:45:16.505Z,4.32
2023-02-05T09:47:50.614Z,4.75
2023-02-05T09:50:29.884Z,4.63
2023-02-05T09:53:02.383Z,3.90
2023-02-05T09:55:32.409Z,4.28
2023-02-05T09:58:04.184Z,4.68
2023-02-05T10:00:40.328Z,4.90
2023-02-05T10:03:29.523Z,4.55
2023-02-05T10:05:57.058Z,3.90
2023-02-05T10:08:29.718Z,4.38
2023-02-05T10:10:58.917Z,4.70
2023-02-05T10:13:29.891Z,3.78
2023-02-05T10:16:11.106Z,3.70
2023-02-05T10:18:48.239Z,5.32
2023-02-05T10:21:22.365Z,4.63
2023-02-05T10:24:09.135Z,4.00
2023-02-05T10:27:06.288Z,4.18
2023-02-05T10:29:52.806Z,4.32
2023-02-05T10:32:25.759Z,3.88
2023-02-05T10:35:04.610Z,3.88
2023-02-05T10:37:46.810Z,4.30
2023-02-05T10:40:24.384Z,4.35
2023-02-05T10:42:58.406Z,3.90
2023-02-05T10:45:27.817Z,3.55
2023-02-05T10:48:11.347Z,4.55
2023-02-05T10:50:57.234Z,3.78
2023-02-05T10:53:26.108Z,3.78
2023-02-05T10:56:16.002Z,4.32
2023-02-05T10:58:50.921Z,4.13
2023-02-05T11:01:21.131Z,4.65
2023-02-05T11:03:52.152Z,3.65
2023-02-05T11:06:20.851Z,3.58
2023-02-05T11:08:48.932Z,3.90
2023-02-05T11:11:23.151Z,3.67
2023-02-05T11:13:54.713Z,5.00
2023-02-05T11:16:23.086Z,3.95
2023-02-05T11:19:00.953Z,3.92
2023-02-05T11:21:49.190Z,3.83
2023-02-05T11:24:36.692Z,3.90
2023-02-05T11:27:17.429Z,3.33
2023-02-05T11:29:45.711Z,4.40
2023-02-05T11:32:24.034Z,4.15
2023-02-05T11:34:56.580Z,5.68
2023-02-05T11:37:24.272Z,5.00
2023-02-05T11:39:54.910Z,6.18
2023-02-05T11:42:23.818Z,4.75
2023-02-05T11:44:53.694Z,4.63
2023-02-05T11:47:25.748Z,4.60
2023-02-05T11:49:54.489Z,4.85
2023-02-05T11:52:35.300Z,4.10
2023-02-05T11:55:09.349Z,4.22
2023-02-05T11:57:39.539Z,4.88
2023-02-05T12:00:16.527Z,4.60
2023-02-05T12:02:45.085Z,5.05
2023-02-05T12:05:19.565Z,5.53
2023-02-05T12:07:47.616Z,3.85
2023-02-05T12:10:16.762Z,4.82
2023-02-05T12:12:50.827Z,5.03
2023-02-05T12:15:25.932Z,4.97
2023-02-05T12:17:56.898Z,5.38
2023-02-05T12:20:29.546Z,4.43
2023-02-05T12:22:57.047Z,4.05
2023-02-05T12:25:44.542Z,4.35
2023-02-05T12:28:29.009Z,5.28
2023-02-05T12:30:58.254Z,3.83
2023-02-05T12:33:38.805Z,4.57
2023-02-05T12:38:34.342Z,4.18
2023-02-05T12:41:14.482Z,4.25
2023-02-05T12:43:46.436Z,4.95
2023-02-05T12:46:34.535Z,4.70
2023-02-05T12:49:05.438Z,4.22
2023-02-05T12:51:33.002Z,4.20
2023-02-05T12:54:05.997Z,4.20
2023-02-05T12:56:46.627Z,3.83
2023-02-05T13:01:48.797Z,5.10
2023-02-05T13:04:26.780Z,3.25
2023-02-05T13:07:00.334Z,3.80
2023-02-05T13:09:33.409Z,3.88
2023-02-05T13:12:05.565Z,3.72
2023-02-05T13:14:37.574Z,3.05
2023-02-05T13:17:17.966Z,3.75
2023-02-05T13:19:54.196Z,2.72
2023-02-05T13:22:48.355Z,3.65
2023-02-05T13:25:38.126Z,4.57
2023-02-05T13:28:42.201Z,3.03
2023-02-05T13:31:23.572Z,3.10
2023-02-05T13:33:52.225Z,4.47
2023-02-05T13:36:23.160Z,3.92
2023-02-05T13:39:11.391Z,4.60
2023-02-05T13:41:49.009Z,4.18
2023-02-05T13:44:31.404Z,4.75
2023-02-05T13:47:20.263Z,3.45
2023-02-05T13:49:54.671Z,4.13
2023-02-05T13:52:36.397Z,3.05
2023-02-05T13:55:16.342Z,4.32
2023-02-05T13:58:03.078Z,4.07
2023-02-05T14:00:31.088Z,3.22
2023-02-05T14:03:05.762Z,3.33
2023-02-05T14:05:35.809Z,4.30
2023-02-05T14:08:04.136Z,3.65
2023-02-05T14:10:33.605Z,4.38
2023-02-05T14:13:20.246Z,4.17
2023-02-05T14:15:48.548Z,3.63
2023-02-05T14:18:35.524Z,3.88
2023-02-05T14:21:23.060Z,3.60
2023-02-05T14:23:50.704Z,3.38
2023-02-05T14:26:19.034Z,3.40
2023-02-05T14:28:48.649Z,3.97
2023-02-05T14:31:35.235Z,2.97
2023-02-05T14:34:22.669Z,3.55
2023-02-05T14:36:53.514Z,4.30
2023-02-05T14:39:25.964Z,2.67
2023-02-05T14:41:59.070Z,4.03
2023-02-05T14:44:30.926Z,3.90
2023-02-05T14:47:02.601Z,3.70
2023-02-05T14:49:39.595Z,4.05
2023-02-05T14:52:08.169Z,2.78
2023-02-05T14:54:45.084Z,3.88
2023-02-05T14:57:16.275Z,3.63
2023-02-05T14:59:52.773Z,3.63
2023-02-05T15:02:40.905Z,3.45
2023-02-05T15:05:17.669Z,3.67
2023-02-05T15:07:47.068Z,3.45
2023-02-05T15:10:17.849Z,3.80
2023-02-05T15:13:01.119Z,3.05
2023-02-05T15:15:33.695Z,2.97
2023-02-05T15:18:11.087Z,4.20
2023-02-05T15:20:40.550Z,3.97
2023-02-05T15:23:07.977Z,3.05
2023-02-05T15:25:40.434Z,3.20
2023-02-05T15:28:28.270Z,4.25
2023-02-05T15:31:03.624Z,3.45
2023-02-05T15:33:41.303Z,3.60
2023-02-05T15:36:18.128Z,2.88
2023-02-05T15:38:49.466Z,3.20
2023-02-05T15:41:17.291Z,4.28
2023-02-05T15:43:59.420Z,4.38
2023-02-05T15:46:27.315Z,3.88
2023-02-05T15:48:56.427Z,3.45
2023-02-05T15:51:35.013Z,3.45
2023-02-05T15:54:04.727Z,3.42
2023-02-05T15:56:36.425Z,3.67
2023-02-05T15:59:04.048Z,3.47
2023-02-05T16:01:35.101Z,3.53
2023-02-05T16:04:03.375Z,4.03
2023-02-05T16:06:32.589Z,3.97
2023-02-05T16:09:00.352Z,4.03
2023-02-05T16:11:35.478Z,3.72
2023-02-05T16:14:07.764Z,5.20
2023-02-05T16:16:38.098Z,3.95
2023-02-05T16:19:06.923Z,4.18
2023-02-05T16:21:42.433Z,3.53
2023-02-05T16:24:17.130Z,4.13
2023-02-05T16:26:49.474Z,3.67
2023-02-05T16:29:25.620Z,3.38
2023-02-05T16:32:00.474Z,4.28
2023-02-05T16:34:28.626Z,4.70
2023-02-05T16:36:58.725Z,4.97
2023-02-05T16:39:28.078Z,4.10
2023-02-05T16:42:06.946Z,4.43
2023-02-05T16:44:40.113Z,3.80
2023-02-05T16:47:18.112Z,4.30
2023-02-05T16:49:47.872Z,4.03
2023-02-05T16:52:27.650Z,3.95
2023-02-05T16:54:55.768Z,3.97
2023-02-05T16:57:26.810Z,4.78
2023-02-05T16:59:56.364Z,4.30
2023-02-05T17:02:35.875Z,4.23
2023-02-05T17:05:06.339Z,3.83
2023-02-05T17:07:34.336Z,4.55
2023-02-05T17:10:15.469Z,4.43
2023-02-05T17:13:05.028Z,4.13
2023-02-05T17:15:40.642Z,4.60
2023-02-05T17:18:22.600Z,4.53
2023-02-05T17:20:50.532Z,5.57
2023-02-05T17:23:18.693Z,4.72
2023-02-05T17:25:52.754Z,4.38
2023-02-05T17:28:21.717Z,4.80
2023-02-05T17:30:50.527Z,5.32
2023-02-05T17:33:23.991Z,4.28
2023-02-05T17:35:51.857Z,4.95
2023-02-05T17:38:25.998Z,5.22
2023-02-05T17:41:21.843Z,5.88
2023-02-05T17:43:52.837Z,4.22
2023-02-05T17:46:20.456Z,4.88
2023-02-05T17:48:53.052Z,4.80
2023-02-05T17:51:22.030Z,4.47
2023-02-05T17:53:50.933Z,4.90
2023-02-05T17:56:19.653Z,4.10
2023-02-05T17:58:47.349Z,5.28
2023-02-05T18:01:18.719Z,4.20
2023-02-05T18:03:46.588Z,4.47
2023-02-05T18:06:15.965Z,4.82
2023-02-05T18:08:43.985Z,5.15
2023-02-05T18:11:11.711Z,6.13
2023-02-05T18:13:39.489Z,5.15
2023-02-05T18:16:07.312Z,5.30
2023-02-05T18:18:39.491Z,4.68
2023-02-05T18:21:08.537Z,4.72
2023-02-05T18:23:36.230Z,5.15
2023-02-05T18:26:05.749Z,6.30
2023-02-05T18:28:33.878Z,7.37
2023-02-05T18:31:20.435Z,6.05
2023-02-05T18:33:49.768Z,6.93
2023-02-05T18:36:17.255Z,6.03
2023-02-05T18:38:59.189Z,5.97
2023-02-05T18:41:31.738Z,5.30
2023-02-05T18:44:00.993Z,6.35
2023-02-05T18:46:29.355Z,6.95
2023-02-05T18:48:57.083Z,6.97
2023-02-05T18:51:24.752Z,6.57
2023-02-05T18:53:54.479Z,5.50
2023-02-05T18:56:25.914Z,5.63
2023-02-05T18:59:02.609Z,4.90
2023-02-05T19:01:31.415Z,6.47
2023-02-05T19:04:03.751Z,5.13
2023-02-05T19:06:32.127Z,5.13
2023-02-05T19:09:00.770Z,6.35
2023-02-05T19:11:29.296Z,5.40
2023-02-05T19:13:57.438Z,4.95
2023-02-05T19:16:25.774Z,4.97
2023-02-05T19:18:55.653Z,5.65
2023-02-05T19:21:24.070Z,7.22
2023-02-05T19:23:55.838Z,6.47
2023-02-05T19:26:24.795Z,5.93
2023-02-05T19:28:56.085Z,7.20
2023-02-05T19:31:25.036Z,6.55
2023-02-05T19:33:53.532Z,5.82
2023-02-05T19:36:22.648Z,7.25
2023-02-05T19:38:50.519Z,5.80
2023-02-05T19:41:23.664Z,4.70
2023-02-05T19:43:52.672Z,5.40
2023-02-05T19:46:22.299Z,4.38
2023-02-05T19:48:50.331Z,5.55
2023-02-05T19:51:18.015Z,5.90
2023-02-05T19:53:46.898Z,5.65
2023-02-05T19:56:17.419Z,6.13
2023-02-05T19:58:46.978Z,4.47
2023-02-05T20:01:24.968Z,4.65
2023-02-05T20:04:00.108Z,4.57
2023-02-05T20:06:29.569Z,5.32
2023-02-05T20:08:57.275Z,5.30
2023-02-05T20:11:25.133Z,6.95
2023-02-05T20:13:54.259Z,6.15
2023-02-05T20:16:23.027Z,5.07
2023-02-05T20:18:55.977Z,5.60
2023-02-05T20:21:23.662Z,5.00
2023-02-05T20:23:55.108Z,5.57
2023-02-05T20:26:23.451Z,5.85
2023-02-05T20:29:11.521Z,4.38
2023-02-05T20:31:46.809Z,5.05
2023-02-05T20:34:19.136Z,5.25
2023-02-05T20:36:54.200Z,5.70
2023-02-05T20:39:22.847Z,4.90
2023-02-05T20:41:51.888Z,5.70
2023-02-05T20:44:20.606Z,4.95
2023-02-05T20:46:48.407Z,5.47
2023-02-05T20:49:16.376Z,5.97
2023-02-05T20:51:45.977Z,5.55
2023-02-05T20:54:14.145Z,5.57
2023-02-05T20:56:42.295Z,4.95
2023-02-05T20:59:10.286Z,6.07
2023-02-05T21:01:38.380Z,5.50
2023-02-05T21:04:06.985Z,5.47
2023-02-05T21:06:36.085Z,6.25
2023-02-05T21:09:04.016Z,5.60
2023-02-05T21:11:31.605Z,6.82
2023-02-05T21:13:59.457Z,5.25
2023-02-05T21:16:28.918Z,6.53
2023-02-05T21:18:56.794Z,6.43
2023-02-05T21:21:26.319Z,6.85
2023-02-05T21:23:58.468Z,5.70
2023-02-05T21:26:28.800Z,6.30
2023-02-05T21:28:57.351Z,6.63
2023-02-05T21:31:26.091Z,7.43
2023-02-05T21:33:53.984Z,8.05
2023-02-05T21:36:21.898Z,6.93
2023-02-05T21:38:49.474Z,6.35
2023-02-05T21:41:18.619Z,6.50
2023-02-05T21:43:51.844Z,6.43
2023-02-05T21:46:19.551Z,5.22
2023-02-05T21:48:51.082Z,5.55
2023-02-05T21:51:19.290Z,5.57
2023-02-05T21:53:46.978Z,6.28
2023-02-05T21:56:16.717Z,5.30
2023-02-05T21:58:45.175Z,7.03
2023-02-05T22:01:17.341Z,6.10
2023-02-05T22:03:49.016Z,6.13
2023-02-05T22:06:16.960Z,6.13
2023-02-05T22:08:48.354Z,5.53
2023-02-05T22:11:19.526Z,4.78
2023-02-05T22:13:48.249Z,5.85
2023-02-05T22:16:18.369Z,5.95
2023-02-05T22:18:47.353Z,6.03
2023-02-05T22:21:16.306Z,4.90
2023-02-05T22:23:45.699Z,5.72
2023-02-05T22:26:14.007Z,5.60
2023-02-05T22:28:41.822Z,5.00
2023-02-05T22:31:11.092Z,4.90
2023-02-05T22:33:42.508Z,6.22
2023-02-05T22:36:11.297Z,5.43
2023-02-05T22:38:39.570Z,5.82
2023-02-05T22:41:17.634Z,5.55
2023-02-05T22:43:46.869Z,6.07
2023-02-05T22:46:15.991Z,5.97
2023-02-05T22:48:45.211Z,5.85
2023-02-05T22:51:14.996Z,5.75
2023-02-05T22:53:43.045Z,6.93
2023-02-05T22:56:12.574Z,5.78
2023-02-05T22:58:41.549Z,4.90
2023-02-05T23:01:10.220Z,7.65
2023-02-05T23:03:38.700Z,5.43
2023-02-05T23:06:16.656Z,6.38
2023-02-05T23:08:45.658Z,5.63
2023-02-05T23:11:15.455Z,5.63
2023-02-05T23:13:43.351Z,5.95
2023-02-05T23:16:31.196Z,6.50
2023-02-05T23:19:03.582Z,5.32
2023-02-05T23:21:35.167Z,5.13
2023-02-05T23:24:02.897Z,6.38
2023-02-05T23:26:35.613Z,5.40
2023-02-05T23:29:03.156Z,6.22
2023-02-05T23:31:31.264Z,6.40
2023-02-05T23:33:59.229Z,6.18
2023-02-05T23:36:27.154Z,5.35
2023-02-05T23:38:54.841Z,5.65
2023-02-05T23:41:40.030Z,5.05
2023-02-05T23:44:16.098Z,5.22
2023-02-05T23:46:45.510Z,6.25
2023-02-05T23:49:16.248Z,6.45
2023-02-05T23:51:44.277Z,5.90
2023-02-05T23:54:12.377Z,6.82
2023-02-05T23:56:40.310Z,5.75
2023-02-05T23:59:14.010Z,5.95
